Time;durP1;ratioP1;P1;durP2;ratioP2;P2;SDS_P1;SDS_P2;PMS_P1;PMS_P2;Temp;Humidity;BMP_temperature;BMP_pressure;BME280_temperature;BME280_humidity;BME280_pressure;Samples;Min_cycle;Max_cycle;Signal;HPM_P1;HPM_P2
2022/10/15 00:00:35;;;;;;;1.45;0.55;;;13.90;86.80;;;;;;5027554;28;20025;-67
2022/10/15 00:03:00;;;;;;;0.68;0.30;;;13.90;86.10;;;;;;5030695;28;20030;-66
2022/10/15 00:05:26;;;;;;;1.08;0.30;;;14.00;87.90;;;;;;5034796;28;20034;-66
2022/10/15 00:07:53;;;;;;;2.10;0.40;;;14.10;88.10;;;;;;5032278;28;20119;-69
2022/10/15 00:10:19;;;;;;;0.70;0.40;;;14.10;89.10;;;;;;5032176;28;20057;-68
2022/10/15 00:12:45;;;;;;;0.88;0.40;;;14.10;87.90;;;;;;5030515;28;20029;-68
2022/10/15 00:15:11;;;;;;;2.72;0.40;;;14.10;87.10;;;;;;5028239;28;20025;-68
2022/10/15 00:17:37;;;;;;;1.83;0.40;;;14.10;88.60;;;;;;5017470;28;20071;-68
2022/10/15 00:20:05;;;;;;;0.30;0.30;;;14.10;88.40;;;;;;5030721;28;20021;-68
2022/10/15 00:22:30;;;;;;;0.30;0.30;;;14.00;87.30;;;;;;5031752;28;20125;-69
2022/10/15 00:24:56;;;;;;;0.80;0.40;;;14.10;88.00;;;;;;5031339;28;20412;-69
2022/10/15 00:27:22;;;;;;;0.30;0.30;;;14.10;87.80;;;;;;5028050;28;20029;-68
2022/10/15 00:29:47;;;;;;;1.33;0.30;;;14.10;88.00;;;;;;5029500;28;20116;-68
2022/10/15 00:32:13;;;;;;;0.35;0.30;;;14.20;89.20;;;;;;5028260;28;20101;-68
2022/10/15 00:34:39;;;;;;;0.40;0.30;;;14.20;89.60;;;;;;5031570;28;20029;-68
2022/10/15 00:37:06;;;;;;;0.68;0.40;;;14.20;89.50;;;;;;5029879;28;20030;-70
2022/10/15 00:39:32;;;;;;;0.52;0.32;;;14.20;89.90;;;;;;5030239;28;20158;-68
2022/10/15 00:41:57;;;;;;;0.45;0.30;;;14.30;90.30;;;;;;5032963;28;20025;-68
2022/10/15 00:44:23;;;;;;;0.50;0.30;;;14.30;90.40;;;;;;5028700;28;20430;-67
2022/10/15 00:46:54;;;;;;;0.40;0.30;;;14.30;90.30;;;;;;5031088;28;20441;-68
2022/10/15 00:49:34;;;;;;;0.70;0.30;;;14.30;91.00;;;;;;5027365;28;20029;-67
2022/10/15 00:52:08;;;;;;;0.43;0.30;;;14.40;90.30;;;;;;5028508;28;20057;-68
2022/10/15 00:54:53;;;;;;;0.55;0.30;;;14.40;90.40;;;;;;5020114;28;21976;-68
2022/10/15 00:57:18;;;;;;;;;;;14.40;89.40;;;;;;5030946;28;20437;-68
2022/10/15 00:59:49;;;;;;;0.35;0.30;;;14.30;88.90;;;;;;5029246;28;19924;-68
2022/10/15 01:02:17;;;;;;;0.73;0.30;;;14.40;89.20;;;;;;5026087;28;20377;-68
2022/10/15 01:04:44;;;;;;;0.30;0.30;;;14.50;90.40;;;;;;5032799;28;20037;-68
2022/10/15 01:07:09;;;;;;;0.30;0.30;;;14.40;89.30;;;;;;5031138;28;20049;-68
2022/10/15 01:09:35;;;;;;;0.30;0.30;;;14.50;90.10;;;;;;5028269;28;20406;-68
2022/10/15 01:12:02;;;;;;;0.50;0.32;;;14.40;89.70;;;;;;5035033;28;20026;-68
2022/10/15 01:15:00;;;;;;;0.47;0.30;;;14.40;88.10;;;;;;5028300;28;20025;-68
2022/10/15 01:17:48;;;;;;;0.95;0.30;;;14.50;90.20;;;;;;5032014;28;20021;-68
2022/10/15 01:20:47;;;;;;;0.32;0.30;;;14.60;91.50;;;;;;5030381;28;20026;-67
2022/10/15 01:23:21;;;;;;;0.82;0.30;;;14.50;90.10;;;;;;5027417;28;20083;-68
2022/10/15 01:26:21;;;;;;;0.30;0.30;;;14.50;90.80;;;;;;5028512;28;20025;-68
2022/10/15 01:29:00;;;;;;;0.20;0.20;;;14.60;91.00;;;;;;5026010;28;20029;-68
2022/10/15 01:31:55;;;;;;;0.30;0.30;;;14.60;89.80;;;;;;5011541;28;20052;-67
2022/10/15 01:34:42;;;;;;;0.20;0.20;;;14.50;90.10;;;;;;5026779;28;20430;-67
2022/10/15 01:37:13;;;;;;;0.30;0.30;;;14.60;91.00;;;;;;5030484;28;20354;-68
2022/10/15 01:39:54;;;;;;;0.30;0.30;;;14.60;91.00;;;;;;5028148;28;20086;-68
2022/10/15 01:42:37;;;;;;;0.60;0.28;;;14.60;90.30;;;;;;5027258;28;20079;-68
2022/10/15 01:45:09;;;;;;;0.95;0.30;;;14.60;91.20;;;;;;5030186;28;20026;-68
2022/10/15 01:47:52;;;;;;;0.43;0.30;;;14.60;90.50;;;;;;5030321;28;20026;-68
2022/10/15 01:50:21;;;;;;;0.65;0.40;;;14.50;90.20;;;;;;5014303;28;20033;-68
2022/10/15 01:52:50;;;;;;;0.43;0.30;;;14.60;91.00;;;;;;5010166;28;20029;-68
2022/10/15 01:55:18;;;;;;;0.25;0.25;;;14.70;91.50;;;;;;5005303;28;20033;-68
2022/10/15 01:57:45;;;;;;;0.38;0.30;;;14.70;91.80;;;;;;5010719;28;20453;-67
2022/10/15 02:00:14;;;;;;;0.75;0.30;;;14.70;91.70;;;;;;5015984;28;20053;-68
2022/10/15 02:02:39;;;;;;;0.80;0.40;;;14.70;91.70;;;;;;5033978;28;20478;-68
2022/10/15 02:05:09;;;;;;;1.50;0.60;;;14.70;91.10;;;;;;5032949;28;20037;-68
2022/10/15 02:07:59;;;;;;;0.70;0.40;;;14.80;91.90;;;;;;5021573;28;20083;-67
2022/10/15 02:10:59;;;;;;;0.40;0.40;;;14.80;91.50;;;;;;5008598;28;20095;-68
2022/10/15 02:13:28;;;;;;;0.30;0.30;;;14.70;91.10;;;;;;5014226;28;20037;-67
2022/10/15 02:16:02;;;;;;;1.65;0.30;;;14.70;91.00;;;;;;5011689;28;20087;-67
2022/10/15 02:18:30;;;;;;;0.30;0.30;;;14.70;90.80;;;;;;5018256;28;20033;-67
2022/10/15 02:21:27;;;;;;;0.75;0.30;;;14.60;90.40;;;;;;5016949;28;20030;-68
2022/10/15 02:24:10;;;;;;;1.73;0.52;;;14.70;91.00;;;;;;5015139;28;20083;-68
2022/10/15 02:26:38;;;;;;;0.30;0.30;;;14.60;90.80;;;;;;5011598;28;20030;-68
2022/10/15 02:29:08;;;;;;;1.58;0.40;;;14.70;91.60;;;;;;4998060;28;20704;-68
2022/10/15 02:31:37;;;;;;;0.60;0.30;;;14.70;91.40;;;;;;5008515;28;20449;-67
2022/10/15 02:34:08;;;;;;;0.40;0.38;;;14.70;91.90;;;;;;5014800;28;20084;-68
2022/10/15 02:36:35;;;;;;;0.40;0.40;;;14.60;90.50;;;;;;5016883;28;20017;-68
2022/10/15 02:39:02;;;;;;;1.23;0.40;;;14.60;91.30;;;;;;5016127;28;20024;-68
2022/10/15 02:41:28;;;;;;;0.30;0.30;;;14.60;92.20;;;;;;5013597;28;20037;-68
2022/10/15 02:43:54;;;;;;;0.38;0.32;;;14.70;92.70;;;;;;5012257;28;20033;-68
2022/10/15 02:46:20;;;;;;;0.82;0.30;;;14.70;93.20;;;;;;5011750;28;20091;-67
2022/10/15 02:48:48;;;;;;;0.40;0.40;;;14.70;94.30;;;;;;5013608;28;20044;-67
2022/10/15 02:51:14;;;;;;;0.38;0.38;;;14.70;93.10;;;;;;5014036;28;20041;-67
2022/10/15 02:53:40;;;;;;;0.75;0.40;;;14.70;92.90;;;;;;5013257;28;20128;-67
2022/10/15 02:56:05;;;;;;;0.30;0.30;;;14.70;93.40;;;;;;5013478;28;20143;-66
2022/10/15 02:58:31;;;;;;;0.30;0.30;;;14.60;95.20;;;;;;5013150;28;20374;-67
2022/10/15 03:00:57;;;;;;;1.65;0.70;;;14.60;93.40;;;;;;5013978;28;20026;-67
2022/10/15 03:03:22;;;;;;;0.77;0.30;;;14.60;94.30;;;;;;5015212;28;20056;-67
2022/10/15 03:05:48;;;;;;;2.45;0.40;;;14.60;93.70;;;;;;5020816;28;20114;-67
2022/10/15 03:08:17;;;;;;;1.27;0.43;;;14.50;93.50;;;;;;5034822;28;20040;-67
2022/10/15 03:10:44;;;;;;;1.70;0.50;;;14.50;94.00;;;;;;5034912;28;20036;-67
2022/10/15 03:13:10;;;;;;;0.50;0.30;;;14.40;92.50;;;;;;5031794;28;20413;-67
2022/10/15 03:15:36;;;;;;;0.70;0.43;;;14.30;91.10;;;;;;5035338;28;20084;-68
2022/10/15 03:18:02;;;;;;;0.77;0.40;;;14.30;91.70;;;;;;5031788;28;20065;-67
2022/10/15 03:20:27;;;;;;;0.80;0.40;;;14.30;92.20;;;;;;5033554;28;20026;-67
2022/10/15 03:22:53;;;;;;;0.75;0.45;;;14.30;91.20;;;;;;5033572;28;20035;-66
2022/10/15 03:25:19;;;;;;;0.73;0.40;;;14.20;91.40;;;;;;5032866;28;20057;-68
2022/10/15 03:27:44;;;;;;;1.27;0.50;;;14.20;91.80;;;;;;5035175;28;20040;-66
2022/10/15 03:30:10;;;;;;;0.70;0.50;;;14.20;92.60;;;;;;5034038;28;20375;-66
2022/10/15 03:32:36;;;;;;;0.60;0.50;;;14.30;92.90;;;;;;5025993;28;20040;-67
2022/10/15 03:35:02;;;;;;;1.85;0.50;;;14.20;92.80;;;;;;5033691;28;20104;-66
2022/10/15 03:37:30;;;;;;;1.38;0.50;;;14.20;93.00;;;;;;5017335;28;20452;-67
2022/10/15 03:39:56;;;;;;;0.52;0.40;;;14.20;92.70;;;;;;5032976;28;20029;-67
2022/10/15 03:42:22;;;;;;;1.58;0.52;;;14.20;92.40;;;;;;5035653;28;20377;-67
2022/10/15 03:44:47;;;;;;;1.65;0.52;;;14.10;92.70;;;;;;5032257;28;20025;-66
2022/10/15 03:47:13;;;;;;;0.95;0.60;;;14.10;93.50;;;;;;5034874;28;20103;-66
2022/10/15 03:49:39;;;;;;;1.23;0.77;;;14.10;92.80;;;;;;5034863;28;20083;-66
2022/10/15 03:52:04;;;;;;;0.70;0.50;;;14.10;92.60;;;;;;5034266;28;20068;-67
2022/10/15 03:54:30;;;;;;;2.42;0.57;;;14.20;93.20;;;;;;5029830;28;20033;-67
2022/10/15 03:56:56;;;;;;;1.73;0.50;;;14.10;92.30;;;;;;5023007;28;20024;-67
2022/10/15 03:59:21;;;;;;;1.08;0.50;;;14.00;91.40;;;;;;5029794;28;20026;-67
2022/10/15 04:01:47;;;;;;;2.42;0.52;;;14.00;92.00;;;;;;5033244;28;20028;-67
2022/10/15 04:04:13;;;;;;;1.23;0.50;;;14.00;91.20;;;;;;5038202;28;20095;-67
2022/10/15 04:06:39;;;;;;;0.93;0.55;;;14.00;92.00;;;;;;5013533;28;20438;-67
2022/10/15 04:09:04;;;;;;;1.27;0.50;;;14.00;92.10;;;;;;5025216;28;20034;-67
2022/10/15 04:11:30;;;;;;;1.05;0.45;;;14.10;93.20;;;;;;5026205;28;20055;-67
2022/10/15 04:13:56;;;;;;;0.40;0.40;;;14.10;92.60;;;;;;5022459;28;20060;-67
2022/10/15 04:16:21;;;;;;;1.02;0.60;;;14.00;92.20;;;;;;5033038;28;20078;-67
2022/10/15 04:18:47;;;;;;;0.50;0.40;;;14.10;93.30;;;;;;5033906;28;20045;-67
2022/10/15 04:21:13;;;;;;;1.30;0.60;;;14.20;93.50;;;;;;5030843;28;20026;-66
2022/10/15 04:23:38;;;;;;;2.05;0.50;;;14.20;94.90;;;;;;5034908;28;20143;-67
2022/10/15 04:26:05;;;;;;;0.85;0.52;;;14.20;95.30;;;;;;5032763;28;20045;-67
2022/10/15 04:28:32;;;;;;;0.80;0.40;;;14.20;94.50;;;;;;5033472;28;20040;-66
2022/10/15 04:30:58;;;;;;;1.05;0.50;;;14.20;94.30;;;;;;5030100;28;20049;-66
2022/10/15 04:33:24;;;;;;;2.38;0.50;;;14.30;95.50;;;;;;5031667;28;20059;-66
2022/10/15 04:36:06;;;;;;;2.05;0.80;;;14.30;95.70;;;;;;5028757;28;20040;-66
2022/10/15 04:38:32;;;;;;;3.00;0.50;;;14.30;96.30;;;;;;5032209;28;20299;-65
2022/10/15 04:41:00;;;;;;;3.28;0.50;;;14.30;95.30;;;;;;5032781;28;20026;-67
2022/10/15 04:43:27;;;;;;;2.45;0.50;;;14.30;96.50;;;;;;5033710;28;20060;-67
2022/10/15 04:45:56;;;;;;;1.30;0.50;;;14.30;96.00;;;;;;5032791;28;20029;-67
2022/10/15 04:48:22;;;;;;;1.13;0.50;;;14.30;95.50;;;;;;5029694;28;20040;-67
2022/10/15 04:50:47;;;;;;;0.65;0.47;;;14.20;95.50;;;;;;5035468;28;20049;-67
2022/10/15 04:53:16;;;;;;;1.10;0.68;;;14.10;94.50;;;;;;5033074;28;20025;-67
2022/10/15 04:55:41;;;;;;;2.10;0.60;;;14.10;93.90;;;;;;5030127;28;20092;-67
2022/10/15 04:58:07;;;;;;;1.42;0.55;;;14.00;93.80;;;;;;5029001;28;20100;-68
2022/10/15 05:00:33;;;;;;;1.45;0.40;;;14.00;93.00;;;;;;5030992;28;20061;-66
2022/10/15 05:02:58;;;;;;;2.00;0.60;;;14.00;94.10;;;;;;5032635;28;20040;-66
2022/10/15 05:05:24;;;;;;;1.00;0.65;;;14.00;94.90;;;;;;5033843;28;20049;-65
2022/10/15 05:07:50;;;;;;;0.90;0.52;;;14.00;94.00;;;;;;5033616;28;20422;-65
2022/10/15 05:10:15;;;;;;;4.75;1.10;;;14.00;94.40;;;;;;5032407;28;20032;-65
2022/10/15 05:12:41;;;;;;;1.17;0.63;;;14.00;94.70;;;;;;5029825;28;20442;-65
2022/10/15 05:15:07;;;;;;;1.35;0.60;;;14.00;94.90;;;;;;5029528;28;20036;-66
2022/10/15 05:17:33;;;;;;;1.27;0.60;;;14.00;94.10;;;;;;5029731;28;20434;-67
2022/10/15 05:19:59;;;;;;;1.15;0.50;;;14.00;94.10;;;;;;5032550;28;20101;-68
2022/10/15 05:22:24;;;;;;;1.05;0.70;;;14.00;93.50;;;;;;5030032;28;20090;-67
2022/10/15 05:24:50;;;;;;;1.25;0.50;;;14.00;94.10;;;;;;5029930;28;20064;-66
2022/10/15 05:27:16;;;;;;;1.00;0.55;;;14.00;96.50;;;;;;5031128;28;20060;-66
2022/10/15 05:29:41;;;;;;;1.50;0.75;;;14.10;96.20;;;;;;5031447;28;20049;-65
2022/10/15 05:32:07;;;;;;;1.05;0.63;;;14.20;97.00;;;;;;5024722;28;20033;-65
2022/10/15 05:34:33;;;;;;;1.77;0.80;;;14.20;97.60;;;;;;5033391;28;20029;-66
2022/10/15 05:36:58;;;;;;;1.02;0.60;;;14.30;97.60;;;;;;5031783;28;20022;-65
2022/10/15 05:39:24;;;;;;;0.47;0.32;;;14.30;98.00;;;;;;5032228;28;20128;-66
2022/10/15 05:41:50;;;;;;;1.02;0.45;;;14.30;98.00;;;;;;5030428;28;20094;-66
2022/10/15 05:44:15;;;;;;;2.47;0.60;;;14.40;98.00;;;;;;5031576;28;20033;-65
2022/10/15 05:46:41;;;;;;;0.80;0.55;;;14.40;98.00;;;;;;5031406;28;20048;-66
2022/10/15 05:49:07;;;;;;;1.23;0.55;;;14.40;98.00;;;;;;5031955;28;20040;-66
2022/10/15 05:51:32;;;;;;;0.93;0.68;;;14.40;98.00;;;;;;5032891;28;20052;-65
2022/10/15 05:53:58;;;;;;;2.50;1.10;;;14.40;98.00;;;;;;5030085;28;20029;-65
2022/10/15 05:56:24;;;;;;;5.30;1.08;;;14.40;97.80;;;;;;5030067;28;20383;-66
2022/10/15 05:58:51;;;;;;;2.42;0.68;;;14.40;97.60;;;;;;5030939;28;20108;-66
2022/10/15 06:01:17;;;;;;;1.02;0.60;;;14.40;97.50;;;;;;5031311;28;20036;-67
2022/10/15 06:03:43;;;;;;;1.83;0.50;;;14.40;97.00;;;;;;5025515;28;20481;-66
2022/10/15 06:06:27;;;;;;;2.72;0.57;;;14.40;96.50;;;;;;5014700;28;20040;-66
2022/10/15 06:08:54;;;;;;;8.20;0.80;;;14.40;96.20;;;;;;5024663;28;20030;-66
2022/10/15 06:11:20;;;;;;;0.77;0.50;;;14.40;96.00;;;;;;5029181;28;20040;-65
2022/10/15 06:13:46;;;;;;;0.75;0.43;;;14.40;95.50;;;;;;5022650;28;20606;-65
2022/10/15 06:16:14;;;;;;;1.13;0.50;;;14.40;94.90;;;;;;5016974;28;20029;-65
2022/10/15 06:18:40;;;;;;;0.63;0.47;;;14.40;95.10;;;;;;5030234;28;20030;-66
2022/10/15 06:21:06;;;;;;;1.75;0.60;;;14.50;95.70;;;;;;5027020;28;20327;-66
2022/10/15 06:23:33;;;;;;;0.68;0.50;;;14.50;95.50;;;;;;5035895;28;20199;-69
2022/10/15 06:26:09;;;;;;;1.05;0.50;;;14.50;95.50;;;;;;5029284;28;20159;-66
2022/10/15 06:28:36;;;;;;;1.17;0.60;;;14.60;95.50;;;;;;5031566;28;20473;-65
2022/10/15 06:31:02;;;;;;;1.20;0.55;;;14.60;95.60;;;;;;5025608;28;20064;-65
2022/10/15 06:33:29;;;;;;;3.90;1.65;;;14.60;95.70;;;;;;5028925;28;20088;-66
2022/10/15 06:35:58;;;;;;;0.95;0.55;;;14.60;95.60;;;;;;5028286;28;20457;-66
2022/10/15 06:38:24;;;;;;;1.35;0.80;;;14.70;96.10;;;;;;5036262;28;20021;-66
2022/10/15 06:40:50;;;;;;;1.15;0.50;;;14.70;96.10;;;;;;5031261;28;20048;-66
2022/10/15 06:43:15;;;;;;;0.65;0.50;;;14.70;95.70;;;;;;5033621;28;20088;-66
2022/10/15 06:45:41;;;;;;;0.47;0.40;;;14.70;94.90;;;;;;5033388;28;20030;-66
2022/10/15 06:48:08;;;;;;;0.40;0.40;;;14.70;94.50;;;;;;5030849;28;20044;-66
2022/10/15 06:50:38;;;;;;;1.77;0.70;;;14.70;94.10;;;;;;5027238;28;20445;-66
2022/10/15 06:53:04;;;;;;;1.00;0.40;;;14.60;93.50;;;;;;5034866;28;20029;-66
2022/10/15 06:55:30;;;;;;;0.88;0.50;;;14.60;92.80;;;;;;5018876;28;20049;-66
2022/10/15 06:57:56;;;;;;;0.40;0.40;;;14.50;91.60;;;;;;5038341;28;20048;-66
2022/10/15 07:00:23;;;;;;;0.40;0.40;;;14.40;90.80;;;;;;5039398;28;20437;-66
2022/10/15 07:02:49;;;;;;;0.77;0.50;;;14.40;89.90;;;;;;5034698;28;20445;-65
2022/10/15 07:05:15;;;;;;;0.35;0.35;;;14.40;89.60;;;;;;5033184;28;20026;-66
2022/10/15 07:07:42;;;;;;;0.38;0.38;;;14.40;89.30;;;;;;5037734;28;20040;-66
2022/10/15 07:10:08;;;;;;;0.98;0.60;;;14.50;90.10;;;;;;5040659;28;20533;-66
2022/10/15 07:12:34;;;;;;;0.98;0.60;;;14.60;90.40;;;;;;5040959;28;20068;-67
2022/10/15 07:14:59;;;;;;;0.60;0.40;;;14.70;91.20;;;;;;5032135;28;20112;-66
2022/10/15 07:17:25;;;;;;;0.90;0.70;;;14.80;91.90;;;;;;5037053;28;20374;-66
2022/10/15 07:19:51;;;;;;;0.52;0.40;;;14.70;91.20;;;;;;5037970;28;20022;-66
2022/10/15 07:22:16;;;;;;;3.10;0.52;;;14.60;91.00;;;;;;5035806;28;20030;-66
2022/10/15 07:24:42;;;;;;;1.45;0.60;;;14.60;90.30;;;;;;5034921;28;20448;-66
2022/10/15 07:27:08;;;;;;;0.40;0.40;;;14.60;89.80;;;;;;5032830;28;20437;-66
2022/10/15 07:29:33;;;;;;;0.55;0.35;;;14.50;89.50;;;;;;5035373;28;20242;-67
2022/10/15 07:31:59;;;;;;;0.73;0.40;;;14.40;90.20;;;;;;5037887;28;20029;-67
2022/10/15 07:34:25;;;;;;;0.55;0.30;;;14.40;90.10;;;;;;5051798;28;20029;-66
2022/10/15 07:36:50;;;;;;;0.47;0.30;;;14.30;91.80;;;;;;5034567;28;20104;-66
2022/10/15 07:39:18;;;;;;;0.60;0.40;;;14.40;92.00;;;;;;5035943;28;20063;-66
2022/10/15 07:41:44;;;;;;;0.57;0.43;;;14.40;92.50;;;;;;5032336;28;20032;-66
2022/10/15 07:44:10;;;;;;;0.55;0.50;;;14.40;91.80;;;;;;5039331;28;20033;-66
2022/10/15 07:46:35;;;;;;;0.88;0.40;;;14.40;93.80;;;;;;5032607;28;20025;-66
2022/10/15 07:49:04;;;;;;;0.50;0.30;;;14.40;94.30;;;;;;5034776;28;20083;-66
2022/10/15 07:51:29;;;;;;;0.88;0.40;;;14.40;94.10;;;;;;5034670;28;20099;-66
2022/10/15 07:53:55;;;;;;;1.02;0.47;;;14.40;95.80;;;;;;5034654;28;20032;-66
2022/10/15 07:56:23;;;;;;;1.45;0.40;;;14.50;95.40;;;;;;5037965;28;20029;-66
2022/10/15 07:58:52;;;;;;;11.73;0.90;;;14.60;97.00;;;;;;5033584;28;20025;-66
2022/10/15 08:01:19;;;;;;;0.75;0.40;;;14.80;98.00;;;;;;5027529;28;20045;-65
2022/10/15 08:03:45;;;;;;;0.88;0.40;;;15.00;98.00;;;;;;5032636;28;20064;-65
2022/10/15 08:06:10;;;;;;;1.13;0.50;;;15.20;98.00;;;;;;5031748;28;20029;-66
2022/10/15 08:08:36;;;;;;;0.65;0.43;;;15.60;98.00;;;;;;5033057;28;20434;-66
2022/10/15 08:11:11;;;;;;;1.83;0.73;;;16.30;98.00;;;;;;5031971;28;20603;-68
2022/10/15 08:13:40;;;;;;;4.22;0.60;;;16.60;98.00;;;;;;5034048;28;20072;-68
2022/10/15 08:16:06;;;;;;;0.95;0.40;;;16.60;98.00;;;;;;5043656;28;20022;-67
2022/10/15 08:18:32;;;;;;;2.67;0.50;;;16.70;98.00;;;;;;5030045;28;20029;-67
2022/10/15 08:21:01;;;;;;;2.08;0.52;;;16.60;98.00;;;;;;5043097;28;20414;-66
2022/10/15 08:23:27;;;;;;;1.90;0.60;;;16.80;97.80;;;;;;5034599;28;20114;-68
2022/10/15 08:25:53;;;;;;;0.93;0.50;;;16.80;97.70;;;;;;5034519;28;20190;-68
2022/10/15 08:28:18;;;;;;;2.25;0.50;;;16.80;97.60;;;;;;5041618;28;20456;-67
2022/10/15 08:30:44;;;;;;;1.10;0.40;;;16.80;96.90;;;;;;5028299;28;20033;-67
2022/10/15 08:33:11;;;;;;;1.33;0.70;;;16.90;97.40;;;;;;5031292;28;20053;-67
2022/10/15 08:35:42;;;;;;;2.95;0.70;;;17.00;97.10;;;;;;5034095;28;20060;-67
2022/10/15 08:38:08;;;;;;;2.25;0.65;;;17.00;96.40;;;;;;5034434;28;20071;-67
2022/10/15 08:40:34;;;;;;;3.47;0.70;;;16.80;96.90;;;;;;5032603;28;20021;-67
2022/10/15 08:43:00;;;;;;;1.77;0.60;;;17.00;96.80;;;;;;5031715;28;20044;-67
2022/10/15 08:45:41;;;;;;;2.92;0.88;;;17.40;95.50;;;;;;5034741;28;20037;-67
2022/10/15 08:48:13;;;;;;;3.75;1.15;;;17.40;95.20;;;;;;5035998;28;20026;-67
2022/10/15 08:50:54;;;;;;;1.98;0.68;;;17.60;94.80;;;;;;5027229;28;20025;-67
2022/10/15 08:53:22;;;;;;;0.95;0.50;;;17.80;95.50;;;;;;5031584;28;20026;-67
2022/10/15 08:55:53;;;;;;;7.25;0.80;;;18.00;94.60;;;;;;5033395;28;20071;-66
2022/10/15 08:58:22;;;;;;;3.80;0.85;;;18.10;93.60;;;;;;5044990;28;20069;-66
2022/10/15 09:01:10;;;;;;;4.57;1.95;;;17.90;94.30;;;;;;5030833;28;20411;-66
2022/10/15 09:03:54;;;;;;;5.50;2.53;;;17.90;94.50;;;;;;5029058;28;20052;-67
2022/10/15 09:06:32;;;;;;;4.32;1.80;;;17.90;93.70;;;;;;5030558;28;20040;-67
2022/10/15 09:09:49;;;;;;;15.88;4.40;;;17.90;93.30;;;;;;5032597;28;20104;-66
2022/10/15 09:12:39;;;;;;;3.10;1.27;;;17.80;93.80;;;;;;5006821;28;20067;-65
2022/10/15 09:15:12;;;;;;;10.27;4.63;;;17.70;93.40;;;;;;5029156;28;20413;-66
2022/10/15 09:17:38;;;;;;;8.07;1.92;;;17.70;93.00;;;;;;5034898;28;20031;-66
2022/10/15 09:20:06;;;;;;;6.72;2.20;;;17.50;94.20;;;;;;5035037;28;20029;-66
2022/10/15 09:22:36;;;;;;;3.03;0.90;;;17.60;94.10;;;;;;5041588;28;20056;-67
2022/10/15 09:25:23;;;;;;;8.25;2.85;;;17.60;94.00;;;;;;5029616;28;20036;-66
2022/10/15 09:27:50;;;;;;;2.53;0.90;;;17.70;94.00;;;;;;5032844;28;20379;-67
2022/10/15 09:30:19;;;;;;;4.47;0.88;;;17.70;93.70;;;;;;5031829;28;20037;-68
2022/10/15 09:33:07;;;;;;;3.58;0.85;;;17.70;93.60;;;;;;5032332;28;20048;-67
2022/10/15 09:35:50;;;;;;;4.32;1.00;;;17.60;93.60;;;;;;5035063;28;20030;-66
2022/10/15 09:38:30;;;;;;;6.15;1.55;;;17.60;93.60;;;;;;5033907;28;20033;-66
2022/10/15 09:41:04;;;;;;;2.17;0.80;;;17.60;94.10;;;;;;5032759;28;20044;-66
2022/10/15 09:43:35;;;;;;;5.50;1.02;;;17.60;94.40;;;;;;5034204;28;20104;-66
2022/10/15 09:46:02;;;;;;;3.78;1.10;;;17.60;94.10;;;;;;5034191;28;20047;-67
2022/10/15 09:48:35;;;;;;;3.75;0.93;;;17.40;93.30;;;;;;5033158;28;20326;-67
2022/10/15 09:51:24;;;;;;;5.05;1.63;;;17.20;94.10;;;;;;5033472;28;20038;-67
2022/10/15 09:53:54;;;;;;;5.00;1.40;;;17.20;95.30;;;;;;5029589;28;20037;-66
2022/10/15 09:56:27;;;;;;;2.38;0.88;;;17.20;94.50;;;;;;5033566;28;20036;-66
2022/10/15 09:58:57;;;;;;;4.53;1.00;;;17.10;95.10;;;;;;5034430;28;20033;-66
2022/10/15 10:01:29;;;;;;;5.47;1.10;;;17.10;94.70;;;;;;5034783;28;20028;-66
2022/10/15 10:04:19;;;;;;;3.78;1.00;;;17.00;94.80;;;;;;5034815;28;20025;-66
2022/10/15 10:06:52;;;;;;;5.63;0.90;;;16.80;95.10;;;;;;5034147;28;20319;-66
2022/10/15 10:09:36;;;;;;;5.53;1.83;;;16.80;95.40;;;;;;5035001;28;20022;-64
2022/10/15 10:12:20;;;;;;;5.05;1.02;;;16.70;95.50;;;;;;5034395;28;20264;-65
2022/10/15 10:14:57;;;;;;;6.68;1.38;;;16.60;95.90;;;;;;5031322;28;20026;-65
2022/10/15 10:17:25;;;;;;;3.60;0.80;;;17.10;94.70;;;;;;5032740;28;20033;-66
2022/10/15 10:20:06;;;;;;;14.55;1.95;;;17.40;93.60;;;;;;5028092;28;20436;-64
2022/10/15 10:22:41;;;;;;;9.30;1.50;;;17.90;92.50;;;;;;5034447;28;20029;-66
2022/10/15 10:25:36;;;;;;;2.40;0.70;;;18.30;92.20;;;;;;5039738;28;20025;-66
2022/10/15 10:28:08;;;;;;;5.07;1.20;;;18.30;92.00;;;;;;5033996;28;20037;-66
2022/10/15 10:30:57;;;;;;;4.05;1.05;;;18.60;90.50;;;;;;5018786;28;20434;-66
2022/10/15 10:33:34;;;;;;;7.82;1.60;;;18.50;90.10;;;;;;5029956;28;20033;-66
2022/10/15 10:36:00;;;;;;;4.85;1.40;;;18.10;91.60;;;;;;5022804;28;20021;-67
2022/10/15 10:38:39;;;;;;;2.40;0.82;;;17.90;92.30;;;;;;5036477;28;20413;-66
2022/10/15 10:41:10;;;;;;;3.25;1.00;;;17.80;92.20;;;;;;5037153;28;20021;-66
2022/10/15 10:43:51;;;;;;;6.50;0.82;;;17.80;93.30;;;;;;5036214;28;20039;-66
2022/10/15 10:46:19;;;;;;;4.30;1.02;;;17.90;92.40;;;;;;5037876;28;20124;-66
2022/10/15 10:48:50;;;;;;;4.82;0.98;;;17.60;92.80;;;;;;5043600;28;20041;-66
2022/10/15 10:51:26;;;;;;;5.45;1.08;;;17.20;93.60;;;;;;5039339;28;20452;-66
2022/10/15 10:54:04;;;;;;;3.72;1.27;;;17.20;94.10;;;;;;5036935;28;20706;-66
2022/10/15 10:56:42;;;;;;;3.95;1.10;;;17.30;94.30;;;;;;5036850;28;20067;-65
2022/10/15 10:59:31;;;;;;;4.53;1.05;;;17.60;93.70;;;;;;5046883;28;20083;-66
2022/10/15 11:01:57;;;;;;;6.18;1.05;;;17.60;93.20;;;;;;5049027;28;20112;-64
2022/10/15 11:04:25;;;;;;;3.28;1.00;;;17.60;93.60;;;;;;5044052;28;20105;-64
2022/10/15 11:07:16;;;;;;;3.90;0.93;;;17.50;93.20;;;;;;5037622;28;20112;-64
2022/10/15 11:09:52;;;;;;;3.78;1.00;;;17.40;93.50;;;;;;5017625;28;20038;-65
2022/10/15 11:12:29;;;;;;;6.18;1.15;;;17.30;93.60;;;;;;5030948;28;20033;-64
2022/10/15 11:15:16;;;;;;;2.78;0.85;;;17.10;94.30;;;;;;5039075;28;20024;-65
2022/10/15 11:18:07;;;;;;;3.50;1.05;;;17.00;95.00;;;;;;5031343;28;20036;-65
2022/10/15 11:21:00;;;;;;;4.28;1.17;;;16.90;94.90;;;;;;5026444;28;20330;-65
2022/10/15 11:24:05;;;;;;;5.93;1.10;;;16.90;95.20;;;;;;5038839;28;20021;-66
2022/10/15 11:26:42;;;;;;;3.63;1.33;;;16.90;95.20;;;;;;5037009;28;20036;-65
2022/10/15 11:29:25;;;;;;;4.55;1.08;;;18.00;92.40;;;;;;5031905;28;20025;-66
2022/10/15 11:32:17;;;;;;;2.55;0.88;;;19.20;90.80;;;;;;5027131;28;20041;-67
2022/10/15 11:35:03;;;;;;;2.42;0.80;;;19.80;87.10;;;;;;5030568;28;20095;-66
2022/10/15 11:38:10;;;;;;;3.03;0.90;;;19.40;87.90;;;;;;5034591;28;20055;-66
2022/10/15 11:41:14;;;;;;;4.30;1.00;;;18.50;89.40;;;;;;5034589;28;20032;-66
2022/10/15 11:44:05;;;;;;;3.13;1.17;;;17.80;92.10;;;;;;5033383;28;20083;-65
2022/10/15 11:46:55;;;;;;;3.05;1.10;;;18.20;91.50;;;;;;5037352;28;20034;-65
2022/10/15 11:49:32;;;;;;;2.65;0.95;;;18.60;90.40;;;;;;5043470;28;20021;-65
2022/10/15 11:52:15;;;;;;;2.15;0.80;;;18.70;89.40;;;;;;5055412;28;20662;-66
2022/10/15 11:54:46;;;;;;;2.50;0.82;;;18.60;91.20;;;;;;5040176;28;20037;-66
2022/10/15 11:57:15;;;;;;;3.47;0.75;;;18.60;90.50;;;;;;5036250;28;20071;-65
2022/10/15 12:00:11;;;;;;;3.53;0.98;;;18.80;90.70;;;;;;5037826;28;20029;-65
2022/10/15 12:02:38;;;;;;;3.33;0.85;;;19.00;89.00;;;;;;5035522;28;20014;-65
2022/10/15 12:05:08;;;;;;;2.58;0.82;;;18.90;89.30;;;;;;5049052;28;20061;-65
2022/10/15 12:07:41;;;;;;;5.05;1.00;;;19.50;88.90;;;;;;5046991;28;20021;-66
2022/10/15 12:10:25;;;;;;;3.10;0.90;;;20.00;86.70;;;;;;5043307;28;20033;-63
2022/10/15 12:13:09;;;;;;;2.65;0.80;;;20.00;85.90;;;;;;5047697;28;20033;-66
2022/10/15 12:15:46;;;;;;;4.20;0.95;;;19.60;86.80;;;;;;5057699;28;20097;-66
2022/10/15 12:18:34;;;;;;;3.88;1.25;;;19.40;86.80;;;;;;5051281;28;20048;-66
2022/10/15 12:21:00;;;;;;;6.72;1.20;;;19.00;87.70;;;;;;5056206;28;20040;-65
2022/10/15 12:23:39;;;;;;;4.13;1.20;;;18.70;89.10;;;;;;5047945;28;20421;-66
2022/10/15 12:26:23;;;;;;;4.10;1.20;;;19.00;89.50;;;;;;5037353;28;20029;-65
2022/10/15 12:28:52;;;;;;;5.25;0.90;;;19.00;88.50;;;;;;5040180;28;20037;-66
2022/10/15 12:31:19;;;;;;;1.70;0.90;;;18.90;88.80;;;;;;5040233;28;20053;-66
2022/10/15 12:33:53;;;;;;;4.63;1.10;;;19.00;89.00;;;;;;5036590;28;20061;-66
2022/10/15 12:36:29;;;;;;;3.10;0.90;;;19.00;88.40;;;;;;5050361;28;20330;-66
2022/10/15 12:38:59;;;;;;;4.03;1.35;;;19.00;88.70;;;;;;5034904;28;20032;-65
2022/10/15 12:41:41;;;;;;;5.88;1.00;;;18.90;89.10;;;;;;5042268;28;20020;-65
2022/10/15 12:44:16;;;;;;;2.92;1.30;;;18.60;89.60;;;;;;5016515;28;20033;-65
2022/10/15 12:46:42;;;;;;;4.35;0.85;;;18.50;90.90;;;;;;5041315;28;20445;-65
2022/10/15 12:49:26;;;;;;;3.63;0.77;;;18.30;90.40;;;;;;5035341;28;20033;-66
2022/10/15 12:51:56;;;;;;;4.15;1.08;;;18.00;90.10;;;;;;5048982;28;20075;-65
2022/10/15 12:54:45;;;;;;;2.90;0.90;;;17.90;91.20;;;;;;5034836;28;20033;-65
2022/10/15 12:57:29;;;;;;;1.85;0.70;;;17.80;91.50;;;;;;5034762;28;20083;-65
2022/10/15 12:59:57;;;;;;;3.42;0.95;;;17.90;91.50;;;;;;5035495;28;20432;-67
2022/10/15 13:02:39;;;;;;;2.72;0.95;;;17.80;90.90;;;;;;5040543;28;20037;-67
2022/10/15 13:05:07;;;;;;;2.53;0.98;;;17.90;91.00;;;;;;5038356;28;20017;-67
2022/10/15 13:07:39;;;;;;;2.25;0.90;;;18.00;90.90;;;;;;5034728;28;20118;-67
2022/10/15 13:10:20;;;;;;;3.65;0.95;;;18.30;90.90;;;;;;5051418;28;20017;-65